Time;durP1;ratioP1;P1;durP2;ratioP2;P2;SDS_P1;SDS_P2;PMS_P1;PMS_P2;Temp;Humidity;BMP_temperature;BMP_pressure;BME280_temperature;BME280_humidity;BME280_pressure;Samples;Min_cycle;Max_cycle;Signal;HPM_P1;HPM_P2
2024/02/21 00:00:00;;;;;;;1.83;0.90;;;6.30;99.90;;;;;;4940838;29;20467;-81
2024/02/21 00:02:26;;;;;;;0.63;0.63;;;6.30;99.90;;;;;;4940815;29;20494;-81
2024/02/21 00:04:53;;;;;;;0.80;0.80;;;6.30;99.90;;;;;;4940992;29;20439;-81
2024/02/21 00:07:21;;;;;;;2.50;0.97;;;6.20;99.90;;;;;;4940556;29;20458;-81
2024/02/21 00:09:48;;;;;;;0.53;0.53;;;6.30;99.90;;;;;;4939962;29;20474;-81
2024/02/21 00:12:15;;;;;;;0.60;0.60;;;6.20;99.90;;;;;;4939545;29;21012;-81
2024/02/21 00:14:42;;;;;;;0.53;0.53;;;6.20;99.90;;;;;;4940341;29;20452;-82
2024/02/21 00:17:09;;;;;;;1.20;0.87;;;6.20;99.90;;;;;;4940370;29;20488;-81
2024/02/21 00:19:36;;;;;;;4.13;1.43;;;6.20;99.90;;;;;;4939623;29;20467;-81
2024/02/21 00:22:02;;;;;;;2.10;1.23;;;6.20;99.90;;;;;;4941283;29;20491;-81
2024/02/21 00:24:30;;;;;;;3.50;0.80;;;6.20;99.90;;;;;;4941141;29;20447;-81
2024/02/21 00:26:57;;;;;;;2.07;0.80;;;6.20;99.90;;;;;;4940711;29;20443;-81
2024/02/21 00:29:24;;;;;;;4.30;0.77;;;6.10;99.90;;;;;;4940368;29;20799;-81
2024/02/21 00:31:50;;;;;;;1.03;0.90;;;6.10;99.90;;;;;;4940678;29;20506;-81
2024/02/21 00:34:17;;;;;;;10.33;1.67;;;6.10;99.90;;;;;;4941171;29;20447;-81
2024/02/21 00:36:44;;;;;;;0.43;0.43;;;6.10;99.90;;;;;;4940793;29;20447;-82
2024/02/21 00:39:10;;;;;;;0.73;0.60;;;6.10;99.90;;;;;;4940289;29;20826;-81
2024/02/21 00:41:38;;;;;;;0.97;0.70;;;6.10;99.90;;;;;;4940463;29;20515;-81
2024/02/21 00:44:06;;;;;;;1.90;0.93;;;6.20;99.90;;;;;;4941052;29;20479;-81
2024/02/21 00:46:32;;;;;;;2.60;0.63;;;6.20;99.90;;;;;;4941007;29;20447;-81
2024/02/21 00:48:59;;;;;;;0.53;0.53;;;6.10;99.90;;;;;;4940889;29;20447;-81
2024/02/21 00:51:26;;;;;;;0.77;0.73;;;6.10;99.90;;;;;;4939888;29;20981;-81
2024/02/21 00:53:52;;;;;;;3.30;0.67;;;6.10;99.90;;;;;;4940314;29;20945;-81
2024/02/21 00:56:19;;;;;;;1.40;0.60;;;6.10;99.90;;;;;;4940424;29;20944;-81
2024/02/21 00:58:47;;;;;;;0.87;0.73;;;6.10;99.90;;;;;;4940117;29;20451;-81
2024/02/21 01:01:14;;;;;;;0.40;0.40;;;6.20;99.90;;;;;;4940642;29;20862;-81
2024/02/21 01:03:41;;;;;;;2.17;0.57;;;6.20;99.90;;;;;;4940088;29;20478;-81
2024/02/21 01:06:07;;;;;;;1.17;0.60;;;6.20;99.90;;;;;;4940189;29;20447;-81
2024/02/21 01:08:34;;;;;;;1.47;0.63;;;6.20;99.90;;;;;;4940574;29;20451;-81
2024/02/21 01:11:01;;;;;;;0.90;0.70;;;6.20;99.90;;;;;;4940560;29;20487;-81
2024/02/21 01:13:27;;;;;;;0.53;0.50;;;6.20;99.90;;;;;;4940561;29;20487;-81
2024/02/21 01:15:55;;;;;;;4.30;1.23;;;6.20;99.90;;;;;;4940520;29;20448;-81
2024/02/21 01:18:22;;;;;;;0.50;0.50;;;6.20;99.90;;;;;;4940877;29;20455;-81
2024/02/21 01:20:49;;;;;;;0.83;0.70;;;6.20;99.90;;;;;;4940430;29;20467;-81
2024/02/21 01:23:15;;;;;;;0.67;0.67;;;6.10;99.90;;;;;;4942244;29;20487;-81
2024/02/21 01:25:42;;;;;;;1.50;0.50;;;6.10;99.90;;;;;;4943973;29;20447;-81
2024/02/21 01:28:09;;;;;;;0.60;0.60;;;6.00;99.90;;;;;;4944443;29;20454;-82
2024/02/21 01:30:36;;;;;;;0.50;0.40;;;6.10;99.90;;;;;;4943849;29;20478;-82
2024/02/21 01:33:04;;;;;;;0.57;0.57;;;6.10;99.90;;;;;;4943562;29;20455;-81
2024/02/21 01:35:31;;;;;;;0.63;0.63;;;6.10;99.90;;;;;;4943885;29;20458;-81
2024/02/21 01:37:58;;;;;;;0.40;0.40;;;6.00;99.90;;;;;;4949168;29;20454;-81
2024/02/21 01:40:24;;;;;;;0.70;0.70;;;6.00;99.90;;;;;;4945653;29;20471;-81
2024/02/21 01:42:53;;;;;;;7.67;0.80;;;6.00;99.90;;;;;;4944908;29;20526;-81
2024/02/21 01:45:20;;;;;;;1.10;0.90;;;6.00;99.90;;;;;;4943942;29;20896;-81
2024/02/21 01:47:47;;;;;;;2.30;0.80;;;6.00;99.90;;;;;;4943729;29;20459;-81
2024/02/21 01:50:16;;;;;;;0.90;0.53;;;5.90;99.90;;;;;;4943923;29;20833;-81
2024/02/21 01:52:44;;;;;;;12.10;1.03;;;5.90;99.90;;;;;;4943372;29;20447;-82
2024/02/21 01:55:13;;;;;;;1.07;0.60;;;5.90;99.90;;;;;;4943339;29;20439;-81
2024/02/21 01:57:40;;;;;;;1.70;0.63;;;5.80;99.90;;;;;;4943563;29;20459;-81
2024/02/21 02:00:10;;;;;;;0.60;0.60;;;5.80;99.90;;;;;;4943939;29;20467;-82
2024/02/21 02:02:38;;;;;;;1.03;0.70;;;5.80;99.90;;;;;;4943221;29;20478;-82
2024/02/21 02:05:06;;;;;;;1.20;0.80;;;5.80;99.90;;;;;;4943259;29;20447;-82
2024/02/21 02:07:34;;;;;;;0.60;0.53;;;5.80;99.90;;;;;;4942872;29;20827;-81
2024/02/21 02:10:01;;;;;;;1.40;0.93;;;5.90;99.90;;;;;;4943611;29;20483;-81
2024/02/21 02:12:28;;;;;;;0.50;0.50;;;5.90;99.90;;;;;;4943297;29;20493;-82
2024/02/21 02:14:59;;;;;;;0.60;0.40;;;5.90;99.90;;;;;;4943892;29;20832;-81
2024/02/21 02:17:26;;;;;;;0.80;0.53;;;5.90;99.90;;;;;;4943078;29;20436;-82
2024/02/21 02:19:53;;;;;;;4.43;0.50;;;5.90;99.90;;;;;;4942626;29;20474;-81
2024/02/21 02:22:24;;;;;;;1.27;1.07;;;6.00;99.90;;;;;;4942818;29;20494;-81
2024/02/21 02:24:52;;;;;;;0.73;0.60;;;6.00;99.90;;;;;;4942656;29;20897;-81
2024/02/21 02:27:19;;;;;;;3.80;1.00;;;6.00;99.90;;;;;;4942651;29;20526;-82
2024/02/21 02:29:45;;;;;;;1.20;0.60;;;6.00;99.90;;;;;;4942090;29;20479;-81
2024/02/21 02:32:12;;;;;;;1.33;0.50;;;6.00;99.90;;;;;;4942641;29;20451;-82
2024/02/21 02:34:39;;;;;;;0.50;0.50;;;6.00;99.90;;;;;;4941968;29;20463;-82
2024/02/21 02:37:06;;;;;;;0.53;0.47;;;6.00;99.90;;;;;;4942504;29;20538;-82
2024/02/21 02:39:32;;;;;;;1.30;0.63;;;6.00;99.90;;;;;;4941981;29;20475;-81
2024/02/21 02:42:00;;;;;;;0.60;0.60;;;6.00;99.90;;;;;;4942365;29;20490;-81
2024/02/21 02:44:27;;;;;;;1.53;0.60;;;6.00;99.90;;;;;;4942095;29;20801;-81
2024/02/21 02:46:54;;;;;;;0.87;0.87;;;6.00;99.90;;;;;;4941832;29;20451;-81
2024/02/21 02:49:20;;;;;;;0.63;0.57;;;6.10;99.90;;;;;;4941711;29;20451;-82
2024/02/21 02:51:47;;;;;;;1.37;1.27;;;6.20;99.90;;;;;;4941952;29;20447;-82
2024/02/21 02:54:14;;;;;;;0.90;0.63;;;6.10;99.90;;;;;;4941595;29;20448;-81
2024/02/21 02:56:40;;;;;;;0.77;0.70;;;6.20;99.90;;;;;;4941312;29;20451;-81
2024/02/21 02:59:08;;;;;;;0.60;0.50;;;6.10;99.90;;;;;;4941065;29;20451;-81
2024/02/21 03:01:36;;;;;;;4.43;0.70;;;6.10;99.90;;;;;;4940558;29;20482;-81
2024/02/21 03:04:03;;;;;;;0.53;0.53;;;6.10;99.90;;;;;;4942115;29;20435;-81
2024/02/21 03:06:29;;;;;;;0.60;0.60;;;6.10;99.90;;;;;;4940706;29;20506;-81
2024/02/21 03:08:56;;;;;;;0.70;0.60;;;6.10;99.90;;;;;;4941009;29;20444;-81
2024/02/21 03:11:28;;;;;;;0.67;0.50;;;6.10;99.90;;;;;;4940286;29;20526;-82
2024/02/21 03:13:55;;;;;;;4.47;0.97;;;6.10;99.90;;;;;;4940663;29;20428;-81
2024/02/21 03:16:23;;;;;;;0.70;0.70;;;6.20;99.90;;;;;;4940517;29;20447;-81
2024/02/21 03:18:50;;;;;;;4.97;0.87;;;6.20;99.90;;;;;;4940562;29;20447;-81
2024/02/21 03:21:16;;;;;;;3.23;1.70;;;6.20;99.90;;;;;;4939950;29;20981;-81
2024/02/21 03:23:43;;;;;;;0.60;0.60;;;6.20;99.90;;;;;;4939989;29;21004;-82
2024/02/21 03:26:10;;;;;;;1.93;0.87;;;6.20;99.90;;;;;;4940154;29;20942;-82
2024/02/21 03:28:36;;;;;;;0.50;0.50;;;6.20;99.90;;;;;;4939891;29;20458;-82
2024/02/21 03:31:03;;;;;;;1.27;0.90;;;6.20;99.90;;;;;;4940045;29;20474;-82
2024/02/21 03:33:31;;;;;;;1.47;0.80;;;6.20;99.90;;;;;;4939663;29;20482;-81
2024/02/21 03:35:58;;;;;;;0.60;0.53;;;6.20;99.90;;;;;;4939283;29;20961;-81
2024/02/21 03:38:25;;;;;;;0.50;0.50;;;6.10;99.90;;;;;;4941363;29;20474;-82
2024/02/21 03:40:52;;;;;;;1.03;0.70;;;6.10;99.90;;;;;;4939354;29;20570;-81
2024/02/21 03:43:18;;;;;;;0.80;0.80;;;6.10;99.90;;;;;;4939114;29;20483;-82
2024/02/21 03:45:45;;;;;;;7.43;1.00;;;6.10;99.90;;;;;;4939017;29;20443;-81
2024/02/21 03:48:12;;;;;;;0.83;0.50;;;6.10;99.90;;;;;;4938884;29;20443;-81
2024/02/21 03:50:40;;;;;;;2.00;0.60;;;6.10;99.90;;;;;;4943266;29;20463;-81
2024/02/21 03:53:06;;;;;;;1.10;1.00;;;6.10;99.90;;;;;;4942818;29;20455;-81
2024/02/21 03:55:33;;;;;;;0.80;0.40;;;6.10;99.90;;;;;;4941765;29;20447;-81
2024/02/21 03:58:00;;;;;;;3.13;0.50;;;6.10;99.90;;;;;;4942200;29;20470;-81
2024/02/21 04:00:26;;;;;;;3.13;0.63;;;6.00;99.90;;;;;;4941616;29;20471;-81
2024/02/21 04:02:53;;;;;;;0.73;0.40;;;6.10;99.90;;;;;;4942978;29;20487;-81
2024/02/21 04:05:20;;;;;;;0.70;0.70;;;6.10;99.90;;;;;;4943138;29;20483;-81
2024/02/21 04:07:48;;;;;;;0.50;0.40;;;6.10;99.90;;;;;;4943175;29;20455;-81
2024/02/21 04:10:14;;;;;;;5.80;1.03;;;6.10;99.90;;;;;;4942262;29;20977;-82
2024/02/21 04:12:41;;;;;;;0.43;0.40;;;6.10;99.90;;;;;;4942777;29;20424;-82
2024/02/21 04:15:09;;;;;;;0.83;0.70;;;6.10;99.90;;;;;;4943158;29;20506;-82
2024/02/21 04:17:35;;;;;;;4.97;0.70;;;6.00;99.90;;;;;;4942516;29;20454;-81
2024/02/21 04:20:05;;;;;;;2.50;0.70;;;6.00;99.90;;;;;;4942757;29;20479;-82
2024/02/21 04:22:32;;;;;;;1.27;0.70;;;5.90;99.90;;;;;;4941983;29;20482;-81
2024/02/21 04:25:01;;;;;;;0.60;0.60;;;5.90;99.90;;;;;;4942298;29;20450;-82
2024/02/21 04:27:27;;;;;;;3.40;0.83;;;5.80;99.90;;;;;;4942618;29;20921;-82
2024/02/21 04:29:54;;;;;;;0.80;0.50;;;5.80;99.90;;;;;;4941780;29;20456;-82
2024/02/21 04:32:21;;;;;;;9.83;0.90;;;5.80;99.90;;;;;;4941811;29;20450;-82
2024/02/21 04:34:47;;;;;;;1.10;0.90;;;5.80;99.90;;;;;;4942212;29;20457;-81
2024/02/21 04:37:14;;;;;;;0.60;0.60;;;5.70;99.90;;;;;;4941994;29;20454;-81
2024/02/21 04:39:41;;;;;;;1.00;0.60;;;5.70;99.90;;;;;;4941407;29;20900;-81
2024/02/21 04:42:09;;;;;;;0.60;0.60;;;5.70;99.90;;;;;;4941067;29;20459;-81
2024/02/21 04:44:36;;;;;;;1.80;0.60;;;5.70;99.90;;;;;;4940922;29;20522;-82
2024/02/21 04:47:03;;;;;;;0.80;0.70;;;5.70;99.90;;;;;;4941606;29;20447;-82
2024/02/21 04:49:30;;;;;;;0.60;0.40;;;5.60;99.90;;;;;;4941461;29;20459;-81
2024/02/21 04:51:56;;;;;;;1.27;1.17;;;5.60;99.90;;;;;;4941382;29;20447;-81
2024/02/21 04:54:23;;;;;;;3.33;0.50;;;5.60;99.90;;;;;;4940940;29;20840;-82
2024/02/21 04:56:50;;;;;;;0.70;0.70;;;5.50;99.90;;;;;;4940545;29;20451;-82
2024/02/21 04:59:18;;;;;;;1.23;1.23;;;5.60;99.90;;;;;;4941061;29;20444;-81
2024/02/21 05:01:45;;;;;;;0.50;0.50;;;5.50;99.90;;;;;;4941575;29;20465;-81
2024/02/21 05:04:11;;;;;;;1.93;0.80;;;5.50;99.90;;;;;;4941793;29;20491;-81
2024/02/21 05:06:39;;;;;;;5.77;0.73;;;5.50;99.90;;;;;;4941965;29;20447;-82
2024/02/21 05:09:06;;;;;;;0.50;0.40;;;5.50;99.90;;;;;;4941966;29;20872;-82
2024/02/21 05:11:33;;;;;;;1.07;0.30;;;5.50;99.90;;;;;;4941163;29;20482;-82
2024/02/21 05:13:59;;;;;;;0.80;0.43;;;5.40;99.90;;;;;;4941183;29;20444;-82
2024/02/21 05:16:27;;;;;;;1.00;0.50;;;5.40;99.90;;;;;;4941293;29;20447;-82
2024/02/21 05:18:54;;;;;;;0.40;0.40;;;5.40;99.90;;;;;;4942486;29;20825;-82
2024/02/21 05:21:21;;;;;;;5.40;0.53;;;5.30;99.90;;;;;;4940705;29;20471;-81
2024/02/21 05:23:47;;;;;;;1.00;0.70;;;5.20;99.90;;;;;;4940555;29;20502;-82
2024/02/21 05:26:21;;;;;;;0.57;0.57;;;5.20;99.90;;;;;;4940490;29;20447;-82
2024/02/21 05:28:48;;;;;;;0.80;0.60;;;5.20;99.90;;;;;;4942413;29;20462;-81
2024/02/21 05:31:15;;;;;;;1.23;0.50;;;5.20;99.90;;;;;;4942279;29;20475;-82
2024/02/21 05:33:43;;;;;;;1.57;0.50;;;5.10;99.90;;;;;;4940056;29;20456;-81
2024/02/21 05:36:10;;;;;;;3.20;1.13;;;5.10;99.90;;;;;;4941122;29;20831;-82
2024/02/21 05:38:37;;;;;;;3.03;0.60;;;5.10;99.90;;;;;;4940102;29;20462;-82
2024/02/21 05:41:04;;;;;;;0.43;0.43;;;5.00;99.90;;;;;;4941607;29;20510;-81
2024/02/21 05:43:31;;;;;;;0.50;0.50;;;4.90;99.90;;;;;;4941486;29;20578;-81
2024/02/21 05:45:58;;;;;;;0.60;0.60;;;4.90;99.90;;;;;;4941585;29;20463;-81
2024/02/21 05:48:25;;;;;;;4.60;0.73;;;5.00;99.90;;;;;;4940588;29;20810;-82
2024/02/21 05:50:53;;;;;;;0.40;0.40;;;5.00;99.90;;;;;;4939304;29;20486;-82
2024/02/21 05:53:19;;;;;;;0.57;0.57;;;5.00;99.90;;;;;;4939593;29;20977;-82
2024/02/21 05:55:46;;;;;;;1.00;0.50;;;4.90;99.90;;;;;;4939622;29;20450;-81
2024/02/21 05:58:13;;;;;;;0.40;0.40;;;4.90;99.90;;;;;;4939497;29;20458;-82
2024/02/21 06:00:40;;;;;;;0.70;0.70;;;5.00;99.90;;;;;;4939726;29;20475;-81
2024/02/21 06:03:08;;;;;;;0.60;0.50;;;5.00;99.90;;;;;;4939783;29;20494;-81
2024/02/21 06:05:38;;;;;;;0.40;0.40;;;5.00;99.90;;;;;;4939054;29;21016;-82
2024/02/21 06:08:07;;;;;;;5.57;0.90;;;5.00;99.90;;;;;;4939559;29;20451;-82
2024/02/21 06:10:33;;;;;;;0.97;0.70;;;5.00;99.90;;;;;;4943050;29;21013;-81
2024/02/21 06:13:00;;;;;;;1.23;0.60;;;5.00;99.90;;;;;;4946843;29;20806;-81
2024/02/21 06:15:26;;;;;;;1.67;1.17;;;5.10;99.90;;;;;;4946168;29;20867;-82
2024/02/21 06:17:53;;;;;;;2.33;0.60;;;5.10;99.90;;;;;;4945344;29;20459;-81
2024/02/21 06:20:20;;;;;;;1.00;0.63;;;5.10;99.90;;;;;;4945185;29;20475;-82
2024/02/21 06:22:46;;;;;;;0.50;0.47;;;5.00;99.90;;;;;;4944785;29;20454;-82
2024/02/21 06:25:14;;;;;;;0.60;0.60;;;5.10;99.90;;;;;;4945053;29;20456;-81
2024/02/21 06:27:41;;;;;;;3.10;0.77;;;5.10;99.90;;;;;;4945128;29;20451;-82
2024/02/21 06:30:09;;;;;;;1.07;0.30;;;5.10;99.90;;;;;;4944702;29;20459;-81
2024/02/21 06:32:36;;;;;;;2.87;0.60;;;5.10;99.90;;;;;;4944047;29;20454;-82
2024/02/21 06:35:03;;;;;;;0.70;0.50;;;5.10;99.90;;;;;;4943968;29;20454;-81
2024/02/21 06:37:29;;;;;;;1.73;1.60;;;5.10;99.90;;;;;;4943804;29;20495;-82
2024/02/21 06:39:56;;;;;;;1.23;0.40;;;5.10;99.90;;;;;;4943784;29;20475;-81
2024/02/21 06:42:26;;;;;;;0.70;0.70;;;5.20;99.90;;;;;;4944017;29;20945;-82
2024/02/21 06:44:53;;;;;;;1.87;0.50;;;5.20;99.90;;;;;;4945289;29;20459;-81
2024/02/21 06:47:20;;;;;;;1.23;0.50;;;5.20;99.90;;;;;;4944742;29;20439;-81
2024/02/21 06:49:50;;;;;;;0.73;0.73;;;5.20;99.90;;;;;;4945885;29;20483;-81
2024/02/21 06:52:20;;;;;;;2.27;0.70;;;5.20;99.90;;;;;;4944937;29;20494;-82
2024/02/21 06:54:46;;;;;;;4.27;0.60;;;5.30;99.90;;;;;;4944612;29;20483;-81
2024/02/21 06:57:13;;;;;;;1.03;0.43;;;5.40;99.90;;;;;;4943974;29;20443;-81
2024/02/21 06:59:41;;;;;;;1.03;0.70;;;5.40;99.90;;;;;;4944266;29;20837;-81
2024/02/21 07:02:08;;;;;;;0.90;0.50;;;5.50;99.90;;;;;;4944026;29;20455;-81
2024/02/21 07:04:35;;;;;;;0.40;0.30;;;5.50;99.90;;;;;;4943323;29;20515;-81
2024/02/21 07:07:02;;;;;;;0.50;0.50;;;5.60;99.90;;;;;;4943316;29;20443;-81
2024/02/21 07:09:31;;;;;;;1.63;0.60;;;5.60;99.90;;;;;;4943014;29;20475;-81
2024/02/21 07:11:58;;;;;;;1.30;0.80;;;5.70;99.90;;;;;;4942402;29;21000;-82
2024/02/21 07:14:25;;;;;;;4.50;0.80;;;5.70;99.90;;;;;;4941900;29;20451;-82
2024/02/21 07:16:54;;;;;;;10.07;0.50;;;5.80;99.90;;;;;;4941621;29;20483;-81
2024/02/21 07:19:20;;;;;;;0.47;0.47;;;5.80;99.90;;;;;;4942051;29;20454;-81
2024/02/21 07:21:47;;;;;;;0.37;0.37;;;5.80;99.90;;;;;;4941587;29;20435;-81
2024/02/21 07:24:14;;;;;;;1.07;0.57;;;5.90;99.90;;;;;;4941380;29;21020;-81
2024/02/21 07:26:43;;;;;;;0.50;0.40;;;5.90;99.90;;;;;;4941388;29;20968;-81
2024/02/21 07:29:10;;;;;;;1.80;0.87;;;6.00;99.90;;;;;;4940083;29;20448;-81
2024/02/21 07:31:41;;;;;;;0.47;0.40;;;6.10;99.90;;;;;;4940072;29;20478;-81
2024/02/21 07:34:09;;;;;;;7.13;1.23;;;6.20;99.90;;;;;;4941402;29;20451;-81
2024/02/21 07:36:37;;;;;;;0.60;0.50;;;6.30;99.90;;;;;;4940941;29;20451;-81
2024/02/21 07:39:04;;;;;;;1.10;0.80;;;6.30;99.90;;;;;;4940101;29;20826;-81
2024/02/21 07:41:31;;;;;;;1.80;0.60;;;6.40;99.90;;;;;;4940023;29;20511;-81
2024/02/21 07:43:58;;;;;;;0.40;0.40;;;6.40;99.90;;;;;;4940314;29;20487;-81
2024/02/21 07:46:24;;;;;;;0.80;0.80;;;6.60;99.90;;;;;;4940373;29;20432;-81
2024/02/21 07:48:52;;;;;;;0.73;0.40;;;6.70;99.90;;;;;;4940148;29;20439;-81
2024/02/21 07:51:20;;;;;;;1.47;0.90;;;6.70;99.90;;;;;;4940833;29;20468;-81
2024/02/21 07:53:47;;;;;;;1.37;0.50;;;6.70;99.90;;;;;;4941228;29;20455;-81
2024/02/21 07:56:14;;;;;;;1.63;0.60;;;6.80;99.90;;;;;;4941320;29;20455;-81
2024/02/21 07:58:41;;;;;;;0.40;0.37;;;6.90;99.90;;;;;;4941513;29;20502;-81
2024/02/21 08:01:08;;;;;;;3.13;1.67;;;7.00;99.90;;;;;;4940791;29;20471;-81
2024/02/21 08:03:35;;;;;;;3.67;0.90;;;7.00;99.90;;;;;;4940131;29;20482;-81
2024/02/21 08:06:03;;;;;;;0.50;0.50;;;7.00;99.90;;;;;;4939746;29;20953;-81
2024/02/21 08:08:31;;;;;;;1.13;0.50;;;7.10;99.90;;;;;;4939439;29;20450;-81
2024/02/21 08:10:57;;;;;;;0.50;0.50;;;7.20;99.90;;;;;;4939063;29;20989;-81
2024/02/21 08:13:24;;;;;;;4.10;0.90;;;7.20;99.90;;;;;;4940742;29;20452;-81
2024/02/21 08:15:51;;;;;;;1.37;0.87;;;7.30;99.90;;;;;;4941402;29;20521;-81
2024/02/21 08:18:18;;;;;;;4.53;1.40;;;7.30;99.90;;;;;;4942239;29;20451;-81
2024/02/21 08:20:44;;;;;;;1.53;0.70;;;7.40;99.90;;;;;;4941666;29;20467;-81
2024/02/21 08:23:11;;;;;;;2.03;0.87;;;7.40;99.90;;;;;;4942426;29;20462;-81
2024/02/21 08:25:39;;;;;;;0.87;0.70;;;7.60;99.90;;;;;;4941261;29;20495;-81
2024/02/21 08:28:06;;;;;;;0.90;0.60;;;7.70;99.90;;;;;;4942210;29;20454;-81
2024/02/21 08:30:33;;;;;;;0.70;0.70;;;7.90;99.90;;;;;;4941129;29;20459;-81
2024/02/21 08:33:00;;;;;;;1.83;1.20;;;8.10;99.90;;;;;;4941036;29;20458;-81
2024/02/21 08:35:26;;;;;;;3.53;0.70;;;8.30;99.90;;;;;;4941152;29;20462;-81
2024/02/21 08:37:53;;;;;;;1.90;0.73;;;8.50;99.90;;;;;;4942443;29;20451;-81
2024/02/21 08:40:21;;;;;;;0.80;0.80;;;8.60;99.90;;;;;;4941843;29;20478;-81
2024/02/21 08:42:50;;;;;;;0.87;0.63;;;8.70;99.90;;;;;;4941952;29;20455;-81
2024/02/21 08:45:16;;;;;;;1.90;0.53;;;8.90;99.90;;;;;;4940995;29;20483;-81
2024/02/21 08:47:44;;;;;;;0.40;0.40;;;8.90;99.90;;;;;;4941165;29;20820;-82
2024/02/21 08:50:11;;;;;;;2.67;0.90;;;9.10;99.90;;;;;;4940923;29;20474;-81
2024/02/21 08:52:37;;;;;;;3.90;0.70;;;9.20;99.90;;;;;;4946902;29;20447;-81
2024/02/21 08:55:05;;;;;;;1.50;0.80;;;9.20;99.90;;;;;;4948504;29;20466;-82
2024/02/21 08:57:36;;;;;;;1.07;0.70;;;9.30;99.90;;;;;;4947546;29;20463;-81
2024/02/21 09:00:09;;;;;;;1.37;0.67;;;9.30;99.90;;;;;;4948193;29;20458;-81
2024/02/21 09:02:36;;;;;;;0.87;0.57;;;9.30;99.90;;;;;;4948203;29;20438;-81
2024/02/21 09:05:05;;;;;;;0.80;0.40;;;9.20;99.90;;;;;;4948494;29;20509;-81
2024/02/21 09:07:31;;;;;;;1.67;0.53;;;9.20;99.90;;;;;;4947427;29;20459;-81
2024/02/21 09:09:58;;;;;;;0.50;0.50;;;9.20;99.90;;;;;;4942933;29;20474;-82
2024/02/21 09:12:25;;;;;;;1.50;0.63;;;9.30;99.90;;;;;;4906966;29;1037601;-82
2024/02/21 09:14:52;;;;;;;2.20;0.73;;;9.30;99.90;;;;;;4942330;29;20207;-81
2024/02/21 09:17:20;;;;;;;1.47;0.67;;;9.50;99.90;;;;;;4942199;29;20436;-81
2024/02/21 09:19:47;;;;;;;1.27;0.70;;;9.60;99.90;;;;;;4942555;29;20471;-81
2024/02/21 09:22:14;;;;;;;0.50;0.50;;;9.90;99.90;;;;;;4942420;29;20443;-81
2024/02/21 09:24:41;;;;;;;2.70;0.60;;;10.00;99.90;;;;;;4942125;29;21019;-82
2024/02/21 09:27:08;;;;;;;0.70;0.53;;;10.10;99.90;;;;;;4942601;29;20447;-82
2024/02/21 09:29:34;;;;;;;4.00;1.83;;;10.30;99.90;;;;;;4941809;29;20462;-81
2024/02/21 09:32:02;;;;;;;1.87;0.80;;;10.70;99.90;;;;;;4941988;29;20503;-81
2024/02/21 09:34:30;;;;;;;0.60;0.53;;;11.40;99.90;;;;;;4941682;29;20929;-81
2024/02/21 09:36:57;;;;;;;1.13;0.60;;;11.90;99.90;;;;;;4941412;29;20452;-81
2024/02/21 09:39:24;;;;;;;2.30;1.00;;;12.60;99.90;;;;;;4942016;29;20455;-81
2024/02/21 09:41:55;;;;;;;0.50;0.50;;;12.90;99.90;;;;;;4942310;29;20869;-81
2024/02/21 09:44:22;;;;;;;2.67;1.03;;;13.30;99.90;;;;;;4943449;29;20482;-81
2024/02/21 09:47:03;;;;;;;0.70;0.70;;;13.80;99.90;;;;;;4945028;29;20874;-81
2024/02/21 09:49:33;;;;;;;2.20;0.60;;;14.50;99.90;;;;;;4944441;29;20478;-81
2024/02/21 09:52:03;;;;;;;1.07;0.80;;;14.70;99.90;;;;;;4945466;29;20454;-81
2024/02/21 09:54:30;;;;;;;3.23;0.80;;;15.00;99.90;;;;;;4944680;29;20471;-81
2024/02/21 09:56:58;;;;;;;0.60;0.60;;;15.20;99.90;;;;;;4944358;29;20941;-81
2024/02/21 09:59:26;;;;;;;1.03;0.70;;;15.60;99.90;;;;;;4943849;29;20463;-81
2024/02/21 10:01:52;;;;;;;0.70;0.60;;;15.80;99.90;;;;;;4945309;29;20454;-81
2024/02/21 10:04:20;;;;;;;1.60;1.10;;;16.00;99.90;;;;;;4945209;29;20487;-81
2024/02/21 10:06:48;;;;;;;3.03;0.73;;;16.00;99.90;;;;;;4945400;29;20446;-81
2024/02/21 10:09:22;;;;;;;1.90;0.53;;;16.10;99.90;;;;;;4944311;29;20454;-81
2024/02/21 10:11:49;;;;;;;2.77;0.63;;;16.20;99.90;;;;;;4943809;29;21055;-81
2024/02/21 10:14:17;;;;;;;0.80;0.70;;;16.20;99.90;;;;;;4943419;29;20448;-82
2024/02/21 10:16:44;;;;;;;10.03;1.33;;;15.70;99.90;;;;;;4943130;29;20451;-82
2024/02/21 10:19:17;;;;;;;0.83;0.83;;;15.40;99.90;;;;;;4943363;29;20443;-82
2024/02/21 10:21:44;;;;;;;4.50;1.00;;;15.20;99.90;;;;;;4943813;29;20420;-82
2024/02/21 10:24:13;;;;;;;1.93;1.07;;;15.10;99.90;;;;;;4943444;29;20510;-82
2024/02/21 10:26:39;;;;;;;4.93;0.80;;;14.90;99.90;;;;;;4943287;29;20450;-82
2024/02/21 10:29:06;;;;;;;1.47;0.63;;;14.80;99.90;;;;;;4942807;29;20459;-82
2024/02/21 10:31:33;;;;;;;1.40;0.60;;;14.90;99.90;;;;;;4942247;29;20455;-82
2024/02/21 10:34:02;;;;;;;0.97;0.60;;;14.90;99.90;;;;;;4942819;29;20933;-83
2024/02/21 10:36:30;;;;;;;0.50;0.50;;;14.70;99.90;;;;;;4942590;29;20860;-83
2024/02/21 10:38:57;;;;;;;7.20;0.70;;;14.70;99.90;;;;;;4942733;29;20424;-83
2024/02/21 10:41:26;;;;;;;2.00;1.00;;;14.70;99.90;;;;;;4946374;29;20459;-83
2024/02/21 10:43:55;;;;;;;1.00;0.50;;;14.50;99.90;;;;;;4945687;29;20542;-83
2024/02/21 10:46:23;;;;;;;1.33;0.73;;;14.70;99.90;;;;;;4940722;29;20443;-83
2024/02/21 10:48:59;;;;;;;0.50;0.50;;;15.10;99.90;;;;;;4939966;29;20442;-83
2024/02/21 10:51:34;;;;;;;1.23;0.50;;;15.40;99.90;;;;;;4940082;29;20466;-83
2024/02/21 10:54:14;;;;;;;0.50;0.50;;;15.60;99.90;;;;;;4940835;29;20435;-83
2024/02/21 10:56:42;;;;;;;1.00;0.50;;;15.50;99.90;;;;;;4940659;29;20435;-83
2024/02/21 10:59:09;;;;;;;0.93;0.60;;;15.20;99.40;;;;;;4940796;29;20455;-83
2024/02/21 11:01:36;;;;;;;0.60;0.60;;;15.10;99.90;;;;;;4940600;29;20459;-83
2024/02/21 11:04:05;;;;;;;0.70;0.60;;;14.90;99.90;;;;;;4940664;29;20442;-83
2024/02/21 11:06:33;;;;;;;2.00;0.60;;;14.80;99.90;;;;;;4947692;29;20482;-83
2024/02/21 11:09:02;;;;;;;1.03;0.50;;;14.60;99.90;;;;;;4943455;29;20455;-83
2024/02/21 11:11:29;;;;;;;1.90;0.50;;;14.50;99.90;;;;;;4942702;29;20494;-83
2024/02/21 11:14:07;;;;;;;0.50;0.50;;;14.30;99.80;;;;;;4943220;29;21000;-83
2024/02/21 11:16:38;;;;;;;0.83;0.60;;;14.20;99.90;;;;;;4943032;29;20415;-83
2024/02/21 11:19:06;;;;;;;0.73;0.60;;;14.10;99.90;;;;;;4942951;29;20486;-83
2024/02/21 11:21:34;;;;;;;3.53;0.80;;;13.80;99.90;;;;;;4942450;29;20474;-83
2024/02/21 11:24:02;;;;;;;1.50;0.53;;;13.70;99.90;;;;;;4942608;29;20478;-83
2024/02/21 11:26:29;;;;;;;4.23;0.73;;;13.40;99.90;;;;;;4941962;29;20495;-83
2024/02/21 11:29:00;;;;;;;2.07;0.63;;;13.20;99.90;;;;;;4941732;29;20486;-83
2024/02/21 11:31:38;;;;;;;0.90;0.50;;;13.10;99.90;;;;;;4941641;29;20471;-83
2024/02/21 11:34:05;;;;;;;0.50;0.50;;;13.10;99.90;;;;;;4941089;29;20454;-83
2024/02/21 11:36:32;;;;;;;1.00;0.50;;;13.20;99.90;;;;;;4941565;29;20451;-83
2024/02/21 11:39:05;;;;;;;0.50;0.50;;;13.20;99.90;;;;;;4942334;29;20451;-83
2024/02/21 11:41:32;;;;;;;0.40;0.40;;;13.30;99.90;;;;;;4942578;29;20467;-83
2024/02/21 11:43:58;;;;;;;1.87;0.50;;;13.40;99.90;;;;;;4941511;29;20957;-83
2024/02/21 11:46:25;;;;;;;0.93;0.67;;;13.40;99.90;;;;;;4940831;29;20904;-83
2024/02/21 11:48:53;;;;;;;1.13;0.50;;;13.60;99.90;;;;;;4961434;28;20480;-82
2024/02/21 11:51:26;;;;;;;3.07;0.77;;;13.60;99.90;;;;;;4961397;28;20471;-82
2024/02/21 11:53:53;;;;;;;0.40;0.40;;;13.50;99.90;;;;;;4961086;28;20440;-83
2024/02/21 11:56:20;;;;;;;0.87;0.57;;;13.50;99.90;;;;;;4958023;29;20454;-83
2024/02/21 11:58:47;;;;;;;0.50;0.50;;;13.40;99.90;;;;;;4953407;29;20879;-83
2024/02/21 12:01:14;;;;;;;0.97;0.50;;;13.30;98.80;;;;;;4943239;29;20462;-83
2024/02/21 12:03:41;;;;;;;0.40;0.40;;;13.20;98.80;;;;;;4942886;29;20443;-83
2024/02/21 12:06:09;;;;;;;1.17;0.70;;;13.20;99.50;;;;;;4942122;29;20479;-83
2024/02/21 12:08:43;;;;;;;0.60;0.57;;;13.20;99.30;;;;;;4942136;29;20454;-83
2024/02/21 12:11:20;;;;;;;0.47;0.47;;;13.30;99.40;;;;;;4942099;29;21013;-82
2024/02/21 12:13:47;;;;;;;0.73;0.70;;;13.30;99.60;;;;;;4942297;29;20475;-82
2024/02/21 12:16:17;;;;;;;1.80;0.50;;;13.40;98.80;;;;;;4942112;29;20447;-83
2024/02/21 12:18:44;;;;;;;0.70;0.40;;;13.50;99.70;;;;;;4944389;29;20423;-82
2024/02/21 12:21:12;;;;;;;0.60;0.40;;;13.60;99.00;;;;;;4942003;29;20467;-82
2024/02/21 12:23:39;;;;;;;0.60;0.60;;;13.50;97.90;;;;;;4940700;29;20459;-83
2024/02/21 12:26:07;;;;;;;0.93;0.93;;;13.20;98.60;;;;;;4940671;29;20522;-83
2024/02/21 12:28:34;;;;;;;0.37;0.30;;;13.30;99.10;;;;;;4941012;29;20826;-82
2024/02/21 12:31:03;;;;;;;1.50;0.43;;;13.40;98.60;;;;;;4940829;29;20881;-82
2024/02/21 12:33:30;;;;;;;0.83;0.43;;;13.50;97.60;;;;;;4940912;29;20453;-83
2024/02/21 12:35:56;;;;;;;1.13;0.40;;;13.50;98.00;;;;;;4940364;29;20454;-82
2024/02/21 12:38:24;;;;;;;0.40;0.30;;;13.50;97.10;;;;;;4940747;29;20827;-82
2024/02/21 12:40:51;;;;;;;0.43;0.40;;;13.50;97.00;;;;;;4941284;29;20463;-82
2024/02/21 12:43:19;;;;;;;0.50;0.50;;;13.50;96.50;;;;;;4940763;29;20447;-82
2024/02/21 12:45:46;;;;;;;3.40;0.40;;;13.50;96.70;;;;;;4940930;29;20489;-82
2024/02/21 12:48:13;;;;;;;1.07;0.40;;;13.50;96.50;;;;;;4941022;29;20439;-82
2024/02/21 12:50:41;;;;;;;0.40;0.40;;;13.50;96.70;;;;;;4940229;29;20993;-82
2024/02/21 12:53:08;;;;;;;0.50;0.50;;;13.60;96.70;;;;;;4941252;29;20945;-82